Jeddo, Texas
Current Conditions -  °F | °C
As of 4:15 AM on Saturday 22 Nov 2014 (Local Time) from K3T5 Reporting Station
Overcast Overcast  
Wind Chill: 65°   Ceiling: 600
Heat Index: 65°   Visibility: 7mi
Dew Point: 64°   Wind: 7mph
Humidity: 96%   Direction: 120°ESE
Pressure: 30.03"   Gusts: NA
Location:  29.8725°N, 97.3223°W
Report Text: K3T5 221015Z AUTO 12006KT 7SM OVC006 18/18 A3003 RMK AO2 LTG DSNT N T01840177
Loading
Personal Weather Stations






























Interactive Weather Map New forecast layout! Learn more

10-Day Weather Forecast

Advertisements
Track Severe Weather on mobile